createdAt,value
2022-12-22T00:01:32.881Z,1.20
2022-12-22T00:04:53.325Z,1.25
2022-12-22T00:08:13.856Z,1.00
2022-12-22T00:11:34.079Z,1.30
2022-12-22T00:14:54.621Z,1.15
2022-12-22T00:18:14.716Z,1.40
2022-12-22T00:21:35.181Z,1.98
2022-12-22T00:24:55.838Z,1.75
2022-12-22T00:28:16.422Z,1.58
2022-12-22T00:31:38.889Z,1.23
2022-12-22T00:35:01.709Z,1.45
2022-12-22T00:38:35.325Z,1.48
2022-12-22T00:41:55.866Z,1.20
2022-12-22T00:45:16.468Z,1.20
2022-12-22T00:48:45.802Z,1.10
2022-12-22T00:52:06.108Z,1.45
2022-12-22T00:55:34.921Z,1.40
2022-12-22T00:58:55.916Z,1.70
2022-12-22T01:02:16.642Z,1.63
2022-12-22T01:05:36.913Z,1.55
2022-12-22T01:08:57.896Z,1.70
2022-12-22T01:12:18.311Z,1.70
2022-12-22T01:15:40.233Z,1.80
2022-12-22T01:19:00.497Z,1.50
2022-12-22T01:22:21.122Z,1.40
2022-12-22T01:25:41.738Z,1.05
2022-12-22T01:29:02.308Z,0.93
2022-12-22T01:32:22.548Z,0.93
2022-12-22T01:35:45.207Z,1.15
2022-12-22T01:39:05.690Z,1.10
2022-12-22T01:42:30.254Z,1.25
2022-12-22T01:45:52.723Z,1.10
2022-12-22T01:49:13.027Z,1.48
2022-12-22T01:52:37.906Z,1.48
2022-12-22T01:55:58.146Z,1.20
2022-12-22T01:59:21.257Z,1.60
2022-12-22T02:02:43.513Z,1.23
2022-12-22T02:06:24.256Z,0.90
2022-12-22T02:10:05.373Z,0.90
2022-12-22T02:13:31.816Z,0.80
2022-12-22T02:17:01.337Z,0.90
2022-12-22T02:20:27.426Z,0.70
2022-12-22T02:24:03.242Z,0.95
2022-12-22T02:27:26.772Z,0.70
2022-12-22T02:30:48.206Z,0.63
2022-12-22T02:34:08.285Z,0.80
2022-12-22T02:38:08.322Z,0.68
2022-12-22T02:41:42.821Z,0.60
2022-12-22T02:45:27.734Z,0.70
2022-12-22T02:48:56.227Z,0.77
2022-12-22T02:52:24.078Z,0.93
2022-12-22T02:55:45.302Z,0.93
2022-12-22T02:59:05.814Z,0.57
2022-12-22T03:02:26.406Z,0.70
2022-12-22T03:05:47.197Z,0.60
2022-12-22T03:09:07.972Z,0.80
2022-12-22T03:12:28.257Z,0.60
2022-12-22T03:15:48.539Z,1.00
2022-12-22T03:19:08.876Z,1.05
2022-12-22T03:22:29.539Z,1.20
2022-12-22T03:25:50.279Z,1.02
2022-12-22T03:28:52.340Z,1.20
2022-12-22T03:31:54.436Z,1.20
2022-12-22T03:34:56.198Z,0.95
2022-12-22T03:37:57.948Z,1.33
2022-12-22T03:41:00.148Z,1.52
2022-12-22T03:44:21.079Z,1.17
2022-12-22T03:47:22.814Z,1.55
2022-12-22T03:50:24.866Z,1.45
2022-12-22T03:53:26.631Z,1.48
2022-12-22T03:56:28.881Z,1.30
2022-12-22T03:59:30.630Z,1.40
2022-12-22T04:02:32.524Z,1.25
2022-12-22T04:05:34.354Z,1.45
2022-12-22T04:08:36.856Z,1.40
2022-12-22T04:11:57.578Z,1.30
2022-12-22T04:14:59.507Z,1.42
2022-12-22T04:18:01.516Z,1.30
2022-12-22T04:21:03.468Z,1.45
2022-12-22T04:24:05.803Z,1.48
2022-12-22T04:27:07.567Z,1.80
2022-12-22T04:30:10.144Z,1.58
2022-12-22T04:33:12.055Z,1.70
2022-12-22T04:36:14.253Z,1.92
2022-12-22T04:39:16.011Z,1.90
2022-12-22T04:42:17.860Z,1.77
2022-12-22T04:45:19.638Z,2.00
2022-12-22T04:48:21.746Z,1.88
2022-12-22T04:51:23.633Z,1.80
2022-12-22T04:54:25.680Z,2.00
2022-12-22T04:57:27.499Z,1.70
2022-12-22T05:00:29.238Z,2.20
2022-12-22T05:03:31.046Z,2.47
2022-12-22T05:06:32.851Z,2.70
2022-12-22T05:09:35.249Z,2.70
2022-12-22T05:12:55.651Z,2.67
2022-12-22T05:16:08.161Z,3.08
2022-12-22T05:19:10.205Z,3.25
2022-12-22T05:22:12.254Z,3.05
2022-12-22T05:25:16.597Z,2.97
2022-12-22T05:28:18.356Z,3.38
2022-12-22T05:31:23.833Z,3.40
2022-12-22T05:34:25.828Z,3.55
2022-12-22T05:37:27.825Z,4.10
2022-12-22T05:40:29.621Z,4.13
2022-12-22T05:43:32.282Z,4.18
2022-12-22T05:46:34.372Z,4.47
2022-12-22T05:49:36.137Z,5.38
2022-12-22T05:52:38.334Z,5.07
2022-12-22T05:55:40.098Z,5.88
2022-12-22T05:58:42.049Z,5.78
2022-12-22T06:01:43.921Z,5.72
2022-12-22T06:04:45.803Z,6.28
2022-12-22T06:07:48.180Z,5.82
2022-12-22T06:10:50.059Z,6.55
2022-12-22T06:13:51.817Z,6.60
2022-12-22T06:16:53.803Z,5.65
2022-12-22T06:19:55.619Z,5.65
2022-12-22T06:22:57.619Z,5.53
2022-12-22T06:26:02.184Z,5.13
2022-12-22T06:29:03.995Z,5.40
2022-12-22T06:32:06.094Z,4.90
2022-12-22T06:35:09.766Z,4.95
2022-12-22T06:38:11.746Z,4.68
2022-12-22T06:41:13.717Z,4.30
2022-12-22T06:44:15.848Z,4.70
2022-12-22T06:47:17.851Z,4.68
2022-12-22T06:50:19.653Z,4.80
2022-12-22T06:53:21.410Z,4.28
2022-12-22T06:56:23.239Z,4.53
2022-12-22T06:59:25.260Z,4.20
2022-12-22T07:02:27.454Z,4.85
2022-12-22T07:05:32.013Z,6.03
2022-12-22T07:08:34.731Z,5.28
2022-12-22T07:11:36.530Z,6.57
2022-12-22T07:14:38.554Z,6.90
2022-12-22T07:17:41.781Z,8.65
2022-12-22T07:20:43.611Z,9.65
2022-12-22T07:23:45.382Z,12.55
2022-12-22T07:26:47.097Z,13.40
2022-12-22T07:29:49.114Z,15.05
2022-12-22T07:32:51.043Z,14.90
2022-12-22T07:36:04.335Z,14.82
2022-12-22T07:39:06.449Z,14.55
2022-12-22T07:42:30.712Z,14.77
2022-12-22T07:45:34.066Z,15.02
2022-12-22T07:51:59.265Z,16.05
2022-12-22T07:55:01.298Z,16.15
2022-12-22T07:58:03.110Z,12.65
2022-12-22T08:01:05.151Z,11.75
2022-12-22T08:04:08.029Z,13.75
2022-12-22T08:07:09.782Z,13.40
2022-12-22T08:10:12.676Z,13.68
2022-12-22T08:13:14.507Z,15.18
2022-12-22T08:16:16.422Z,16.77
2022-12-22T08:19:18.465Z,16.08
2022-12-22T08:22:23.882Z,19.10
2022-12-22T08:25:25.716Z,20.33
2022-12-22T08:28:28.147Z,21.55
2022-12-22T08:31:31.711Z,23.20
2022-12-22T08:34:33.601Z,25.23
2022-12-22T08:37:41.294Z,25.50
2022-12-22T08:40:44.882Z,21.65
2022-12-22T08:46:48.491Z,19.40
2022-12-22T08:49:50.355Z,20.20
2022-12-22T08:52:52.275Z,20.10
2022-12-22T08:55:55.241Z,21.05
2022-12-22T08:58:57.379Z,20.13
2022-12-22T09:02:05.009Z,21.60
2022-12-22T09:05:07.321Z,20.33
2022-12-22T09:08:09.395Z,22.08
2022-12-22T09:11:11.723Z,21.20
2022-12-22T09:14:13.566Z,19.17
2022-12-22T09:17:15.312Z,20.08
2022-12-22T09:20:17.489Z,19.13
2022-12-22T09:23:19.409Z,19.17
2022-12-22T09:26:23.413Z,19.75
2022-12-22T09:29:25.270Z,20.60
2022-12-22T09:32:28.589Z,19.02
2022-12-22T09:38:32.445Z,20.27
2022-12-22T09:41:46.890Z,20.02
2022-12-22T09:44:51.888Z,21.40
2022-12-22T09:47:55.607Z,20.85
2022-12-22T09:50:59.232Z,21.15
2022-12-22T09:54:01.656Z,21.23
2022-12-22T09:57:06.521Z,22.30
2022-12-22T10:00:15.729Z,22.20
2022-12-22T10:03:39.871Z,20.67
2022-12-22T10:07:13.862Z,20.23
2022-12-22T10:10:27.697Z,22.17
2022-12-22T10:13:29.677Z,20.20
2022-12-22T10:16:31.723Z,21.35
2022-12-22T10:19:33.551Z,17.77
2022-12-22T10:22:40.133Z,19.05
2022-12-22T10:29:19.217Z,18.45
2022-12-22T10:32:22.770Z,17.77
2022-12-22T10:35:24.789Z,17.05
2022-12-22T10:38:35.591Z,18.05
2022-12-22T10:41:49.934Z,17.38
2022-12-22T10:44:51.796Z,17.58
2022-12-22T10:47:56.867Z,16.67
2022-12-22T10:51:00.286Z,16.75
2022-12-22T10:57:06.381Z,15.52
2022-12-22T11:00:34.864Z,14.10
2022-12-22T11:03:36.946Z,13.25
2022-12-22T11:06:39.016Z,12.50
2022-12-22T11:09:42.248Z,11.93
2022-12-22T11:13:04.947Z,11.68
2022-12-22T11:16:33.110Z,11.32
2022-12-22T11:19:50.230Z,11.45
2022-12-22T11:23:01.803Z,11.00
2022-12-22T11:26:27.839Z,10.15
2022-12-22T11:29:40.674Z,9.50
2022-12-22T11:32:45.544Z,9.85
2022-12-22T11:35:51.216Z,10.43
2022-12-22T11:39:14.550Z,10.80
2022-12-22T11:42:40.244Z,10.20
2022-12-22T11:45:44.993Z,10.65
2022-12-22T11:49:28.565Z,11.25
2022-12-22T11:53:08.716Z,10.55
2022-12-22T11:56:24.420Z,10.82
2022-12-22T11:59:53.727Z,10.52
2022-12-22T12:03:57.892Z,11.32
2022-12-22T12:07:25.982Z,11.63
2022-12-22T12:10:33.230Z,10.95
2022-12-22T12:14:10.858Z,7.85
2022-12-22T12:17:37.720Z,6.20
2022-12-22T12:20:51.095Z,5.13
2022-12-22T12:24:26.334Z,4.93
2022-12-22T12:28:00.429Z,4.22
2022-12-22T12:31:07.855Z,4.35
2022-12-22T12:34:16.377Z,4.63
2022-12-22T12:37:26.604Z,4.45
2022-12-22T12:40:47.330Z,4.63
2022-12-22T12:43:52.176Z,4.55
2022-12-22T12:47:02.371Z,3.80
2022-12-22T12:50:31.911Z,3.78
2022-12-22T12:53:33.748Z,3.92
2022-12-22T12:57:09.540Z,3.75
2022-12-22T13:00:34.121Z,3.88
2022-12-22T13:07:01.165Z,3.63
2022-12-22T13:10:21.263Z,4.13
2022-12-22T13:13:23.343Z,3.58
2022-12-22T13:16:27.400Z,3.58
2022-12-22T13:19:30.998Z,3.70
2022-12-22T13:22:33.451Z,2.70
2022-12-22T13:25:49.147Z,2.00
2022-12-22T13:28:57.800Z,1.90
2022-12-22T13:32:01.793Z,1.50
2022-12-22T13:35:38.504Z,1.42
2022-12-22T13:38:42.011Z,1.15
2022-12-22T13:41:46.582Z,1.25
2022-12-22T13:44:48.629Z,1.00
2022-12-22T13:47:51.191Z,1.27
2022-12-22T13:50:55.795Z,1.10
2022-12-22T13:54:09.725Z,1.60
2022-12-22T13:57:18.666Z,1.17
2022-12-22T14:00:25.654Z,1.50
2022-12-22T14:03:58.073Z,1.50
2022-12-22T14:06:50.952Z,1.23
2022-12-22T14:09:56.483Z,1.20
2022-12-22T14:12:58.718Z,1.30
2022-12-22T14:16:05.551Z,1.02
2022-12-22T14:19:07.561Z,1.58
2022-12-22T14:22:17.021Z,1.10
2022-12-22T14:25:30.947Z,1.40
2022-12-22T14:28:43.189Z,1.10
2022-12-22T14:32:04.440Z,1.23
2022-12-22T14:35:21.493Z,1.20
2022-12-22T14:38:25.424Z,1.30
2022-12-22T14:41:43.198Z,1.38
2022-12-22T14:44:47.328Z,1.35
2022-12-22T14:47:49.302Z,1.20
2022-12-22T14:50:52.593Z,1.13
2022-12-22T14:53:58.167Z,1.33
2022-12-22T14:57:15.777Z,3.40
2022-12-22T15:00:24.321Z,4.97
2022-12-22T15:03:35.510Z,3.70
2022-12-22T15:06:41.146Z,2.22
2022-12-22T15:10:25.381Z,2.05
2022-12-22T15:13:27.449Z,2.15
2022-12-22T15:16:29.254Z,2.53
2022-12-22T15:20:16.201Z,2.20
2022-12-22T15:23:18.322Z,2.80
2022-12-22T15:26:20.278Z,2.83
2022-12-22T15:29:22.066Z,2.72
2022-12-22T15:32:27.078Z,2.70
2022-12-22T15:35:32.083Z,3.03
2022-12-22T15:38:38.714Z,2.83
2022-12-22T15:41:41.668Z,2.75
2022-12-22T15:44:43.580Z,2.43
2022-12-22T15:47:52.373Z,3.13
2022-12-22T15:50:55.410Z,3.33
2022-12-22T15:53:58.466Z,3.05
2022-12-22T15:57:01.327Z,3.60
2022-12-22T16:00:03.571Z,3.38
2022-12-22T16:03:06.290Z,3.70
2022-12-22T16:06:13.840Z,3.25
2022-12-22T16:09:27.507Z,3.35
2022-12-22T16:15:35.304Z,3.13
2022-12-22T16:18:37.620Z,2.83
2022-12-22T16:21:39.460Z,3.78
2022-12-22T16:24:44.352Z,4.05
2022-12-22T16:27:49.301Z,4.20
2022-12-22T16:30:51.992Z,4.75
2022-12-22T16:33:54.095Z,3.53
2022-12-22T16:36:55.842Z,3.22
2022-12-22T16:39:57.619Z,3.65
2022-12-22T16:46:49.312Z,4.40
2022-12-22T16:49:51.619Z,3.78
2022-12-22T16:52:53.458Z,3.50
2022-12-22T16:55:55.704Z,4.18
2022-12-22T16:58:58.104Z,5.70
2022-12-22T17:02:00.040Z,4.38
2022-12-22T17:05:03.257Z,4.88
2022-12-22T17:08:08.303Z,5.55
2022-12-22T17:11:17.153Z,6.25
2022-12-22T17:14:27.455Z,5.68
2022-12-22T17:17:34.254Z,5.65
2022-12-22T17:20:37.341Z,6.00
2022-12-22T17:23:44.129Z,6.47
2022-12-22T17:26:46.207Z,6.07
2022-12-22T17:29:48.096Z,7.45
2022-12-22T17:32:52.815Z,6.38
2022-12-22T17:35:56.764Z,5.38
2022-12-22T17:39:00.216Z,5.45
2022-12-22T17:45:06.414Z,5.10
2022-12-22T17:48:08.790Z,5.93
2022-12-22T17:51:21.766Z,5.63
2022-12-22T17:54:28.015Z,6.30
2022-12-22T17:57:33.104Z,6.78
2022-12-22T18:00:34.952Z,6.40
2022-12-22T18:03:36.758Z,8.10
2022-12-22T18:06:40.227Z,6.35
2022-12-22T18:12:45.571Z,6.78
2022-12-22T18:15:47.712Z,6.95
2022-12-22T18:18:49.794Z,6.90
2022-12-22T18:21:51.663Z,6.65
2022-12-22T18:24:55.150Z,7.15
2022-12-22T18:27:59.259Z,7.75
2022-12-22T18:31:01.369Z,7.05
2022-12-22T18:34:03.396Z,6.25
2022-12-22T18:37:11.450Z,6.93
2022-12-22T18:40:33.171Z,6.47
2022-12-22T18:43:34.982Z,6.65
2022-12-22T18:46:36.838Z,7.18
2022-12-22T18:49:38.774Z,6.65
2022-12-22T18:52:40.775Z,6.68
2022-12-22T18:55:43.033Z,6.35
2022-12-22T18:58:46.079Z,5.63
2022-12-22T19:01:48.271Z,5.38
2022-12-22T19:04:51.005Z,6.47
2022-12-22T19:07:54.007Z,5.40
2022-12-22T19:10:59.660Z,5.78
2022-12-22T19:14:01.877Z,5.13
2022-12-22T19:17:03.929Z,5.20
2022-12-22T19:20:06.657Z,5.47
2022-12-22T19:23:12.628Z,5.10
2022-12-22T19:26:24.225Z,5.07
2022-12-22T19:29:26.285Z,4.70
2022-12-22T19:32:30.600Z,4.57
2022-12-22T19:35:32.886Z,4.72
2022-12-22T19:38:40.461Z,4.18
2022-12-22T19:41:47.050Z,4.20
2022-12-22T19:44:49.280Z,4.38
2022-12-22T19:47:52.992Z,4.53
2022-12-22T19:50:55.475Z,4.97
2022-12-22T19:53:57.329Z,3.73
2022-12-22T19:56:59.553Z,3.42
2022-12-22T20:00:01.444Z,3.63
2022-12-22T20:03:03.554Z,3.63
2022-12-22T20:06:08.051Z,3.83
2022-12-22T20:09:11.042Z,4.28
2022-12-22T20:12:34.902Z,4.20
2022-12-22T20:18:39.901Z,4.23
2022-12-22T20:21:42.377Z,3.67
2022-12-22T20:24:46.325Z,3.33
2022-12-22T20:27:49.186Z,2.85
2022-12-22T20:30:51.648Z,3.47
2022-12-22T20:33:54.968Z,3.17
2022-12-22T20:39:59.460Z,3.25
2022-12-22T20:43:01.195Z,3.15
2022-12-22T20:46:27.832Z,3.60
2022-12-22T20:49:31.086Z,3.55
2022-12-22T20:52:32.853Z,2.92
2022-12-22T20:55:34.857Z,2.88
2022-12-22T20:58:36.738Z,2.53
2022-12-22T21:01:38.864Z,2.53
2022-12-22T21:04:40.775Z,2.38
2022-12-22T21:07:45.716Z,2.25
2022-12-22T21:10:49.222Z,2.60
2022-12-22T21:13:58.269Z,2.10
2022-12-22T21:17:00.358Z,2.75
2022-12-22T21:20:02.454Z,2.30
2022-12-22T21:23:07.080Z,2.42
2022-12-22T21:26:27.477Z,2.10
2022-12-22T21:29:30.049Z,2.45
2022-12-22T21:32:32.027Z,2.60
2022-12-22T21:35:37.852Z,1.88
2022-12-22T21:38:39.837Z,2.00
2022-12-22T21:42:00.444Z,2.55
2022-12-22T21:45:09.603Z,2.90
2022-12-22T21:48:15.706Z,3.47
2022-12-22T21:51:17.612Z,2.80
2022-12-22T21:54:21.344Z,2.90
2022-12-22T21:57:30.853Z,2.50
2022-12-22T22:00:33.823Z,3.05
2022-12-22T22:03:35.951Z,2.75
2022-12-22T22:06:37.980Z,2.42
2022-12-22T22:09:40.400Z,2.30
2022-12-22T22:12:42.590Z,2.37
2022-12-22T22:15:44.463Z,2.20
2022-12-22T22:18:47.666Z,2.40
2022-12-22T22:21:49.732Z,2.13
2022-12-22T22:24:51.517Z,1.90
2022-12-22T22:27:58.577Z,2.30
2022-12-22T22:31:00.858Z,2.08
2022-12-22T22:34:02.682Z,2.33
2022-12-22T22:37:07.369Z,2.30
2022-12-22T22:40:12.937Z,2.08
2022-12-22T22:43:15.179Z,1.98
2022-12-22T22:46:16.957Z,2.60
2022-12-22T22:49:24.250Z,1.63
2022-12-22T22:52:30.171Z,1.63
2022-12-22T22:55:32.201Z,1.90
2022-12-22T22:58:34.006Z,2.10
2022-12-22T23:01:35.832Z,2.47
2022-12-22T23:04:37.881Z,2.50
2022-12-22T23:07:39.774Z,2.63
2022-12-22T23:10:48.599Z,2.67
2022-12-22T23:13:53.329Z,2.25
2022-12-22T23:16:55.253Z,3.20
2022-12-22T23:19:57.270Z,2.90
2022-12-22T23:22:59.026Z,2.70
2022-12-22T23:26:01.158Z,2.85
2022-12-22T23:29:04.092Z,2.85
2022-12-22T23:32:12.590Z,2.67
2022-12-22T23:35:17.519Z,3.10
2022-12-22T23:38:21.108Z,2.33
2022-12-22T23:41:23.689Z,2.95
2022-12-22T23:44:31.427Z,3.43
2022-12-22T23:47:33.275Z,2.83
2022-12-22T23:50:36.215Z,2.90
2022-12-22T23:53:39.133Z,2.88
2022-12-22T23:56:43.951Z,2.88
2022-12-22T23:59:45.768Z,2.65
